Cazaux (BA 120) Air Base

METAR LFBY TAF LFBZ
19 °C
°C
-
°C
25m
Wiek
23:55:19
LT
22:55
UTC
0 ft

1.000

2.000

3.000

4.000

5.000

VFR
<?= Yii::t('app', 'Wind direction') ?> <?= Yii::t('app', 'of'); ?>
260°
07:51
Wschód słońca
49%
Wilgotność
Siła wiatru
Zamknięte/Śnieg
Zasięg wzroku na RWY
Stan RWY
Widzialność pionowa
Min. widoczność
CAVOK
Trend
Korekta
Raport specjalny
1015 hPa
QNH
METAR LFBY 292230Z AUTO 26006KT 180V340 9999 // ////// 19/08 Q1015
Niebo czyste
2 kt
2 kt
00:00
VFR
15 kt
01:00
VFR
15 kt
02:00
VFR
10 kt
03:00
VFR
10 kt
04:00
VFR
3 kt
05:00
MVFR
3 kt
06:00
MVFR
3 kt
10 km+
Widoczność
Brak
Sufit
6 kt
Wiatr
metar-taf.com/LFBC

Metar-Taf.com

Dekoder wizualny

My i strony trzecie śledzimy Twoje zachowanie internetowe na naszej stronie za pomocą plików cookie. Jeśli kontynuujesz, zakładamy, że zgadzasz się z naszymi polityka plików cookie.